sensor_id;sensor_type;location;lat;lon;timestamp;temperature;humidity
31619;DHT22;18230;51.502;7.108;2023-05-17T00:00:17;10.30;99.90
31619;DHT22;18230;51.502;7.108;2023-05-17T00:05:18;10.40;99.90
31619;DHT22;18230;51.502;7.108;2023-05-17T00:10:19;10.20;99.90
31619;DHT22;18230;51.502;7.108;2023-05-17T00:15:20;10.10;99.90
31619;DHT22;18230;51.502;7.108;2023-05-17T00:20:20;10.10;99.90
31619;DHT22;18230;51.502;7.108;2023-05-17T00:25:21;10.10;99.90
31619;DHT22;18230;51.502;7.108;2023-05-17T00:30:22;10.10;99.90
31619;DHT22;18230;51.502;7.108;2023-05-17T00:35:23;10.10;99.90
31619;DHT22;18230;51.502;7.108;2023-05-17T00:40:24;10.10;99.90
31619;DHT22;18230;51.502;7.108;2023-05-17T00:45:25;10.00;99.90
31619;DHT22;18230;51.502;7.108;2023-05-17T00:50:26;9.90;99.90
31619;DHT22;18230;51.502;7.108;2023-05-17T00:55:27;9.90;99.90
31619;DHT22;18230;51.502;7.108;2023-05-17T01:00:28;9.90;99.90
31619;DHT22;18230;51.502;7.108;2023-05-17T01:05:29;9.80;99.90
31619;DHT22;18230;51.502;7.108;2023-05-17T01:10:56;9.70;99.90
31619;DHT22;18230;51.502;7.108;2023-05-17T01:16:24;9.70;99.90
31619;DHT22;18230;51.502;7.108;2023-05-17T01:26:59;9.60;99.90
31619;DHT22;18230;51.502;7.108;2023-05-17T01:32:02;9.50;99.90
31619;DHT22;18230;51.502;7.108;2023-05-17T01:37:04;9.50;99.90
31619;DHT22;18230;51.502;7.108;2023-05-17T01:42:22;9.50;99.90
31619;DHT22;18230;51.502;7.108;2023-05-17T01:47:36;9.50;99.90
31619;DHT22;18230;51.502;7.108;2023-05-17T01:52:51;9.40;99.90
31619;DHT22;18230;51.502;7.108;2023-05-17T01:57:54;9.40;99.90
31619;DHT22;18230;51.502;7.108;2023-05-17T02:02:56;9.40;99.90
31619;DHT22;18230;51.502;7.108;2023-05-17T02:07:57;9.40;99.90
31619;DHT22;18230;51.502;7.108;2023-05-17T02:12:58;9.40;99.90
31619;DHT22;18230;51.502;7.108;2023-05-17T02:17:59;9.30;99.90
31619;DHT22;18230;51.502;7.108;2023-05-17T02:23:00;9.40;99.90
31619;DHT22;18230;51.502;7.108;2023-05-17T02:28:00;9.40;99.90
31619;DHT22;18230;51.502;7.108;2023-05-17T02:33:01;9.30;99.90
31619;DHT22;18230;51.502;7.108;2023-05-17T02:38:02;9.30;99.90
31619;DHT22;18230;51.502;7.108;2023-05-17T02:43:03;9.30;99.90
31619;DHT22;18230;51.502;7.108;2023-05-17T02:48:03;9.30;99.90
31619;DHT22;18230;51.502;7.108;2023-05-17T02:53:04;9.30;99.90
31619;DHT22;18230;51.502;7.108;2023-05-17T02:58:05;9.40;99.90
31619;DHT22;18230;51.502;7.108;2023-05-17T03:03:06;9.40;99.90
31619;DHT22;18230;51.502;7.108;2023-05-17T03:08:06;9.40;99.90
31619;DHT22;18230;51.502;7.108;2023-05-17T03:13:07;9.50;99.90
31619;DHT22;18230;51.502;7.108;2023-05-17T03:18:08;9.50;99.90
31619;DHT22;18230;51.502;7.108;2023-05-17T03:23:09;9.60;99.90
31619;DHT22;18230;51.502;7.108;2023-05-17T03:28:09;9.60;99.90
31619;DHT22;18230;51.502;7.108;2023-05-17T03:33:10;9.60;99.90
31619;DHT22;18230;51.502;7.108;2023-05-17T03:38:11;9.70;99.90
31619;DHT22;18230;51.502;7.108;2023-05-17T03:43:12;9.70;99.90
31619;DHT22;18230;51.502;7.108;2023-05-17T03:48:12;9.80;99.90
31619;DHT22;18230;51.502;7.108;2023-05-17T03:53:13;9.80;99.90
31619;DHT22;18230;51.502;7.108;2023-05-17T03:58:14;9.90;99.90
31619;DHT22;18230;51.502;7.108;2023-05-17T04:03:15;10.00;99.90
31619;DHT22;18230;51.502;7.108;2023-05-17T04:08:15;10.10;99.90
31619;DHT22;18230;51.502;7.108;2023-05-17T04:13:16;10.10;99.90
31619;DHT22;18230;51.502;7.108;2023-05-17T04:18:17;10.10;99.90
31619;DHT22;18230;51.502;7.108;2023-05-17T04:23:17;10.10;99.90
31619;DHT22;18230;51.502;7.108;2023-05-17T04:28:18;10.20;99.90
31619;DHT22;18230;51.502;7.108;2023-05-17T04:33:21;10.40;99.90
31619;DHT22;18230;51.502;7.108;2023-05-17T04:38:22;10.50;99.90
31619;DHT22;18230;51.502;7.108;2023-05-17T04:43:23;10.50;99.90
31619;DHT22;18230;51.502;7.108;2023-05-17T04:48:24;10.50;99.90
31619;DHT22;18230;51.502;7.108;2023-05-17T04:53:26;10.50;99.90
31619;DHT22;18230;51.502;7.108;2023-05-17T04:58:27;10.60;99.90
31619;DHT22;18230;51.502;7.108;2023-05-17T05:03:27;11.00;99.90
31619;DHT22;18230;51.502;7.108;2023-05-17T05:08:28;11.20;99.90
31619;DHT22;18230;51.502;7.108;2023-05-17T05:13:30;11.30;99.90
31619;DHT22;18230;51.502;7.108;2023-05-17T05:18:31;11.50;99.90
31619;DHT22;18230;51.502;7.108;2023-05-17T05:23:32;11.60;99.90
31619;DHT22;18230;51.502;7.108;2023-05-17T05:28:33;11.70;99.90
31619;DHT22;18230;51.502;7.108;2023-05-17T05:33:33;11.80;99.90
31619;DHT22;18230;51.502;7.108;2023-05-17T05:38:34;11.90;99.90
31619;DHT22;18230;51.502;7.108;2023-05-17T05:43:36;12.00;99.90
31619;DHT22;18230;51.502;7.108;2023-05-17T05:48:37;12.30;99.90
31619;DHT22;18230;51.502;7.108;2023-05-17T05:53:41;12.50;99.90
31619;DHT22;18230;51.502;7.108;2023-05-17T05:58:41;12.60;99.90
31619;DHT22;18230;51.502;7.108;2023-05-17T06:03:42;12.70;99.90
31619;DHT22;18230;51.502;7.108;2023-05-17T06:08:43;12.70;99.90
31619;DHT22;18230;51.502;7.108;2023-05-17T06:13:45;13.20;99.90
31619;DHT22;18230;51.502;7.108;2023-05-17T06:18:46;13.80;99.90
31619;DHT22;18230;51.502;7.108;2023-05-17T06:23:46;13.70;99.90
31619;DHT22;18230;51.502;7.108;2023-05-17T06:28:48;13.60;99.90
31619;DHT22;18230;51.502;7.108;2023-05-17T06:33:49;13.80;99.90
31619;DHT22;18230;51.502;7.108;2023-05-17T06:38:49;13.70;99.90
31619;DHT22;18230;51.502;7.108;2023-05-17T06:43:50;14.20;99.90
31619;DHT22;18230;51.502;7.108;2023-05-17T06:48:51;14.00;99.90
31619;DHT22;18230;51.502;7.108;2023-05-17T06:53:52;13.40;99.90
31619;DHT22;18230;51.502;7.108;2023-05-17T06:58:52;13.00;99.90
31619;DHT22;18230;51.502;7.108;2023-05-17T07:03:53;12.90;99.90
31619;DHT22;18230;51.502;7.108;2023-05-17T07:08:54;12.90;99.90
31619;DHT22;18230;51.502;7.108;2023-05-17T07:13:54;13.10;99.90
31619;DHT22;18230;51.502;7.108;2023-05-17T07:18:55;13.30;99.90
31619;DHT22;18230;51.502;7.108;2023-05-17T07:23:56;13.20;99.90
31619;DHT22;18230;51.502;7.108;2023-05-17T07:28:57;13.10;99.90
31619;DHT22;18230;51.502;7.108;2023-05-17T07:33:58;13.20;99.90
31619;DHT22;18230;51.502;7.108;2023-05-17T07:38:58;13.70;99.90
31619;DHT22;18230;51.502;7.108;2023-05-17T07:43:59;14.10;99.90
31619;DHT22;18230;51.502;7.108;2023-05-17T07:49:00;14.10;99.90
31619;DHT22;18230;51.502;7.108;2023-05-17T07:54:00;14.40;99.90
31619;DHT22;18230;51.502;7.108;2023-05-17T07:59:02;14.50;99.90
31619;DHT22;18230;51.502;7.108;2023-05-17T08:04:03;15.00;99.90
31619;DHT22;18230;51.502;7.108;2023-05-17T08:09:04;15.20;99.90
31619;DHT22;18230;51.502;7.108;2023-05-17T08:14:05;14.90;99.90
31619;DHT22;18230;51.502;7.108;2023-05-17T08:19:06;15.20;99.90
31619;DHT22;18230;51.502;7.108;2023-05-17T08:24:07;15.40;99.90
31619;DHT22;18230;51.502;7.108;2023-05-17T08:29:08;15.30;99.90
31619;DHT22;18230;51.502;7.108;2023-05-17T08:34:09;15.00;99.90
31619;DHT22;18230;51.502;7.108;2023-05-17T08:39:09;15.30;99.90
31619;DHT22;18230;51.502;7.108;2023-05-17T08:44:12;15.70;99.90
31619;DHT22;18230;51.502;7.108;2023-05-17T08:49:14;16.00;99.90
31619;DHT22;18230;51.502;7.108;2023-05-17T08:54:15;16.10;99.90
31619;DHT22;18230;51.502;7.108;2023-05-17T08:59:16;16.10;99.90
31619;DHT22;18230;51.502;7.108;2023-05-17T09:04:18;16.20;99.90
31619;DHT22;18230;51.502;7.108;2023-05-17T09:09:20;16.00;99.90
31619;DHT22;18230;51.502;7.108;2023-05-17T09:14:21;15.50;99.90
31619;DHT22;18230;51.502;7.108;2023-05-17T09:19:22;16.00;99.90
31619;DHT22;18230;51.502;7.108;2023-05-17T09:24:27;16.30;99.90
31619;DHT22;18230;51.502;7.108;2023-05-17T09:29:33;16.60;99.90
31619;DHT22;18230;51.502;7.108;2023-05-17T09:34:37;16.90;99.90
31619;DHT22;18230;51.502;7.108;2023-05-17T09:39:40;16.90;99.90
31619;DHT22;18230;51.502;7.108;2023-05-17T09:49:49;17.10;99.90
31619;DHT22;18230;51.502;7.108;2023-05-17T09:54:55;16.60;99.90
31619;DHT22;18230;51.502;7.108;2023-05-17T09:59:57;16.60;99.90
31619;DHT22;18230;51.502;7.108;2023-05-17T10:04:58;16.10;99.90
31619;DHT22;18230;51.502;7.108;2023-05-17T10:10:01;16.50;99.90
31619;DHT22;18230;51.502;7.108;2023-05-17T10:15:04;16.10;99.90
31619;DHT22;18230;51.502;7.108;2023-05-17T10:20:07;16.00;99.90
31619;DHT22;18230;51.502;7.108;2023-05-17T10:25:09;16.30;99.90
31619;DHT22;18230;51.502;7.108;2023-05-17T10:30:10;16.30;99.90
31619;DHT22;18230;51.502;7.108;2023-05-17T10:35:13;16.00;99.90
31619;DHT22;18230;51.502;7.108;2023-05-17T10:40:15;16.50;99.90
31619;DHT22;18230;51.502;7.108;2023-05-17T10:45:21;17.00;99.90
31619;DHT22;18230;51.502;7.108;2023-05-17T10:50:24;16.90;99.90
31619;DHT22;18230;51.502;7.108;2023-05-17T10:55:40;16.90;99.90
31619;DHT22;18230;51.502;7.108;2023-05-17T11:00:43;17.30;98.90
31619;DHT22;18230;51.502;7.108;2023-05-17T11:06:14;17.00;99.00
31619;DHT22;18230;51.502;7.108;2023-05-17T11:11:18;17.00;97.30
31619;DHT22;18230;51.502;7.108;2023-05-17T11:16:27;17.00;97.00
31619;DHT22;18230;51.502;7.108;2023-05-17T11:21:33;17.10;95.60
31619;DHT22;18230;51.502;7.108;2023-05-17T11:26:39;17.30;95.20
31619;DHT22;18230;51.502;7.108;2023-05-17T11:31:51;16.60;95.80
31619;DHT22;18230;51.502;7.108;2023-05-17T11:36:54;16.70;95.90
31619;DHT22;18230;51.502;7.108;2023-05-17T11:41:56;16.40;95.70
31619;DHT22;18230;51.502;7.108;2023-05-17T11:47:04;16.90;96.10
31619;DHT22;18230;51.502;7.108;2023-05-17T11:52:06;17.50;94.60
31619;DHT22;18230;51.502;7.108;2023-05-17T11:57:08;17.30;93.80
31619;DHT22;18230;51.502;7.108;2023-05-17T12:02:28;17.20;93.00
31619;DHT22;18230;51.502;7.108;2023-05-17T12:07:29;17.50;91.30
31619;DHT22;18230;51.502;7.108;2023-05-17T12:12:30;17.70;92.40
31619;DHT22;18230;51.502;7.108;2023-05-17T12:17:36;17.40;91.70
31619;DHT22;18230;51.502;7.108;2023-05-17T12:22:52;17.50;91.60
31619;DHT22;18230;51.502;7.108;2023-05-17T12:28:12;17.90;90.10
31619;DHT22;18230;51.502;7.108;2023-05-17T12:33:14;17.90;89.30
31619;DHT22;18230;51.502;7.108;2023-05-17T12:38:15;18.00;89.40
31619;DHT22;18230;51.502;7.108;2023-05-17T12:43:15;17.80;89.30
31619;DHT22;18230;51.502;7.108;2023-05-17T12:48:18;17.90;85.90
31619;DHT22;18230;51.502;7.108;2023-05-17T12:53:18;18.20;84.20
31619;DHT22;18230;51.502;7.108;2023-05-17T12:58:19;18.60;83.30
31619;DHT22;18230;51.502;7.108;2023-05-17T13:03:20;18.30;86.30
31619;DHT22;18230;51.502;7.108;2023-05-17T13:08:21;17.80;87.00
31619;DHT22;18230;51.502;7.108;2023-05-17T13:13:22;18.00;88.20
31619;DHT22;18230;51.502;7.108;2023-05-17T13:18:22;17.60;85.50
31619;DHT22;18230;51.502;7.108;2023-05-17T13:23:24;17.60;86.20
31619;DHT22;18230;51.502;7.108;2023-05-17T13:28:24;17.80;85.10
31619;DHT22;18230;51.502;7.108;2023-05-17T13:33:25;17.80;85.30
31619;DHT22;18230;51.502;7.108;2023-05-17T13:38:27;17.90;84.40
31619;DHT22;18230;51.502;7.108;2023-05-17T13:43:28;17.60;84.30
31619;DHT22;18230;51.502;7.108;2023-05-17T13:48:30;17.60;85.20
31619;DHT22;18230;51.502;7.108;2023-05-17T13:53:31;18.00;84.40
31619;DHT22;18230;51.502;7.108;2023-05-17T13:58:31;18.80;81.40
31619;DHT22;18230;51.502;7.108;2023-05-17T14:03:32;19.20;77.80
31619;DHT22;18230;51.502;7.108;2023-05-17T14:08:34;19.30;74.90
31619;DHT22;18230;51.502;7.108;2023-05-17T14:13:35;18.30;77.70
31619;DHT22;18230;51.502;7.108;2023-05-17T14:18:36;18.70;78.30
31619;DHT22;18230;51.502;7.108;2023-05-17T14:23:36;19.30;74.80
31619;DHT22;18230;51.502;7.108;2023-05-17T14:28:37;19.50;73.70
31619;DHT22;18230;51.502;7.108;2023-05-17T14:33:38;19.60;73.10
31619;DHT22;18230;51.502;7.108;2023-05-17T14:38:39;19.80;71.80
31619;DHT22;18230;51.502;7.108;2023-05-17T14:43:40;20.10;69.70
31619;DHT22;18230;51.502;7.108;2023-05-17T14:48:40;20.50;67.10
31619;DHT22;18230;51.502;7.108;2023-05-17T14:53:41;20.60;67.60
31619;DHT22;18230;51.502;7.108;2023-05-17T14:58:42;20.90;65.40
31619;DHT22;18230;51.502;7.108;2023-05-17T15:03:43;20.50;66.10
31619;DHT22;18230;51.502;7.108;2023-05-17T15:08:44;20.10;67.00
31619;DHT22;18230;51.502;7.108;2023-05-17T15:13:45;19.60;68.80
31619;DHT22;18230;51.502;7.108;2023-05-17T15:18:46;18.80;72.10
31619;DHT22;18230;51.502;7.108;2023-05-17T15:23:46;18.80;72.20
31619;DHT22;18230;51.502;7.108;2023-05-17T15:28:49;18.90;71.20
31619;DHT22;18230;51.502;7.108;2023-05-17T15:33:50;19.50;72.50
31619;DHT22;18230;51.502;7.108;2023-05-17T15:38:51;20.30;69.30
31619;DHT22;18230;51.502;7.108;2023-05-17T15:43:53;20.60;68.20
31619;DHT22;18230;51.502;7.108;2023-05-17T15:48:53;21.00;66.20
31619;DHT22;18230;51.502;7.108;2023-05-17T15:53:56;21.00;63.80
31619;DHT22;18230;51.502;7.108;2023-05-17T15:58:56;20.70;64.90
31619;DHT22;18230;51.502;7.108;2023-05-17T16:03:57;20.40;66.40
31619;DHT22;18230;51.502;7.108;2023-05-17T16:08:58;20.50;65.70
31619;DHT22;18230;51.502;7.108;2023-05-17T16:13:59;20.10;67.10
31619;DHT22;18230;51.502;7.108;2023-05-17T16:18:59;20.30;66.70
31619;DHT22;18230;51.502;7.108;2023-05-17T16:24:00;20.90;65.90
31619;DHT22;18230;51.502;7.108;2023-05-17T16:29:03;21.00;65.00
31619;DHT22;18230;51.502;7.108;2023-05-17T16:34:04;20.00;64.60
31619;DHT22;18230;51.502;7.108;2023-05-17T16:39:05;20.20;65.40
31619;DHT22;18230;51.502;7.108;2023-05-17T16:44:06;20.70;64.60
31619;DHT22;18230;51.502;7.108;2023-05-17T16:49:06;20.10;63.50
31619;DHT22;18230;51.502;7.108;2023-05-17T16:54:07;20.30;64.00
31619;DHT22;18230;51.502;7.108;2023-05-17T16:59:08;20.70;64.90
31619;DHT22;18230;51.502;7.108;2023-05-17T17:04:09;20.70;64.00
31619;DHT22;18230;51.502;7.108;2023-05-17T17:09:10;20.70;62.50
31619;DHT22;18230;51.502;7.108;2023-05-17T17:14:11;20.30;63.40
31619;DHT22;18230;51.502;7.108;2023-05-17T17:19:12;20.30;62.80
31619;DHT22;18230;51.502;7.108;2023-05-17T17:24:13;20.60;62.40
31619;DHT22;18230;51.502;7.108;2023-05-17T17:29:14;20.70;62.50
31619;DHT22;18230;51.502;7.108;2023-05-17T17:34:15;20.20;63.10
31619;DHT22;18230;51.502;7.108;2023-05-17T17:39:16;19.00;65.40
31619;DHT22;18230;51.502;7.108;2023-05-17T17:44:17;18.50;67.60
31619;DHT22;18230;51.502;7.108;2023-05-17T17:49:18;18.40;69.20
31619;DHT22;18230;51.502;7.108;2023-05-17T17:54:19;18.70;69.10
31619;DHT22;18230;51.502;7.108;2023-05-17T17:59:20;18.70;69.30
31619;DHT22;18230;51.502;7.108;2023-05-17T18:04:20;18.50;69.40
31619;DHT22;18230;51.502;7.108;2023-05-17T18:09:22;18.30;70.90
31619;DHT22;18230;51.502;7.108;2023-05-17T18:14:23;18.20;71.00
31619;DHT22;18230;51.502;7.108;2023-05-17T18:19:23;17.70;71.40
31619;DHT22;18230;51.502;7.108;2023-05-17T18:24:24;17.60;72.70
31619;DHT22;18230;51.502;7.108;2023-05-17T18:29:25;17.40;73.30
31619;DHT22;18230;51.502;7.108;2023-05-17T18:34:26;17.00;74.40
31619;DHT22;18230;51.502;7.108;2023-05-17T18:39:27;16.80;76.10
31619;DHT22;18230;51.502;7.108;2023-05-17T18:44:28;16.60;77.10
31619;DHT22;18230;51.502;7.108;2023-05-17T18:49:29;16.80;77.60
31619;DHT22;18230;51.502;7.108;2023-05-17T18:54:29;16.50;78.00
31619;DHT22;18230;51.502;7.108;2023-05-17T18:59:31;16.40;78.10
31619;DHT22;18230;51.502;7.108;2023-05-17T19:04:32;16.00;79.50
31619;DHT22;18230;51.502;7.108;2023-05-17T19:09:32;15.80;81.50
31619;DHT22;18230;51.502;7.108;2023-05-17T19:14:33;15.70;82.50
31619;DHT22;18230;51.502;7.108;2023-05-17T19:19:34;15.40;83.80
31619;DHT22;18230;51.502;7.108;2023-05-17T19:24:36;15.10;86.40
31619;DHT22;18230;51.502;7.108;2023-05-17T19:29:36;15.10;87.90
31619;DHT22;18230;51.502;7.108;2023-05-17T19:34:37;14.90;89.80
31619;DHT22;18230;51.502;7.108;2023-05-17T19:39:38;14.60;90.90
31619;DHT22;18230;51.502;7.108;2023-05-17T19:44:39;14.40;92.50
31619;DHT22;18230;51.502;7.108;2023-05-17T19:49:40;14.30;93.70
31619;DHT22;18230;51.502;7.108;2023-05-17T19:54:40;14.00;95.30
31619;DHT22;18230;51.502;7.108;2023-05-17T19:59:41;13.90;97.20
31619;DHT22;18230;51.502;7.108;2023-05-17T20:04:42;13.80;98.70
31619;DHT22;18230;51.502;7.108;2023-05-17T20:09:43;13.80;99.70
31619;DHT22;18230;51.502;7.108;2023-05-17T20:14:44;13.70;99.90
31619;DHT22;18230;51.502;7.108;2023-05-17T20:19:45;13.60;99.90
31619;DHT22;18230;51.502;7.108;2023-05-17T20:24:46;13.60;99.90
31619;DHT22;18230;51.502;7.108;2023-05-17T20:29:47;13.50;99.90
31619;DHT22;18230;51.502;7.108;2023-05-17T20:34:47;13.30;99.90
31619;DHT22;18230;51.502;7.108;2023-05-17T20:39:48;13.20;99.90
31619;DHT22;18230;51.502;7.108;2023-05-17T20:44:49;13.10;99.90
31619;DHT22;18230;51.502;7.108;2023-05-17T20:49:53;13.00;99.90
31619;DHT22;18230;51.502;7.108;2023-05-17T20:54:53;12.80;99.90
31619;DHT22;18230;51.502;7.108;2023-05-17T20:59:54;12.70;99.90
31619;DHT22;18230;51.502;7.108;2023-05-17T21:04:57;12.60;99.90
31619;DHT22;18230;51.502;7.108;2023-05-17T21:09:57;12.50;99.90
31619;DHT22;18230;51.502;7.108;2023-05-17T21:14:58;12.40;99.90
31619;DHT22;18230;51.502;7.108;2023-05-17T21:19:59;12.30;99.90
31619;DHT22;18230;51.502;7.108;2023-05-17T21:25:00;12.20;99.90
31619;DHT22;18230;51.502;7.108;2023-05-17T21:30:00;12.20;99.90
31619;DHT22;18230;51.502;7.108;2023-05-17T21:35:01;12.10;99.90
31619;DHT22;18230;51.502;7.108;2023-05-17T21:40:02;12.10;99.90
31619;DHT22;18230;51.502;7.108;2023-05-17T21:45:04;12.10;99.90
31619;DHT22;18230;51.502;7.108;2023-05-17T21:50:06;12.00;99.90
31619;DHT22;18230;51.502;7.108;2023-05-17T21:55:07;12.00;99.90
31619;DHT22;18230;51.502;7.108;2023-05-17T22:00:09;11.90;99.90
31619;DHT22;18230;51.502;7.108;2023-05-17T22:05:14;11.80;99.90
31619;DHT22;18230;51.502;7.108;2023-05-17T22:10:15;11.70;99.90
31619;DHT22;18230;51.502;7.108;2023-05-17T22:15:17;11.50;99.90
31619;DHT22;18230;51.502;7.108;2023-05-17T22:20:18;11.40;99.90
31619;DHT22;18230;51.502;7.108;2023-05-17T22:25:22;11.40;99.90
31619;DHT22;18230;51.502;7.108;2023-05-17T22:30:23;11.20;99.90
31619;DHT22;18230;51.502;7.108;2023-05-17T22:35:23;11.10;99.90
31619;DHT22;18230;51.502;7.108;2023-05-17T22:40:24;11.00;99.90
31619;DHT22;18230;51.502;7.108;2023-05-17T22:45:25;11.00;99.90
31619;DHT22;18230;51.502;7.108;2023-05-17T22:50:32;10.90;99.90
31619;DHT22;18230;51.502;7.108;2023-05-17T22:55:32;10.80;99.90
31619;DHT22;18230;51.502;7.108;2023-05-17T23:00:33;10.80;99.90
31619;DHT22;18230;51.502;7.108;2023-05-17T23:05:34;10.80;99.90
31619;DHT22;18230;51.502;7.108;2023-05-17T23:10:36;10.70;99.90
31619;DHT22;18230;51.502;7.108;2023-05-17T23:15:37;10.80;99.90
31619;DHT22;18230;51.502;7.108;2023-05-17T23:20:38;10.80;99.90
31619;DHT22;18230;51.502;7.108;2023-05-17T23:25:39;10.70;99.90
31619;DHT22;18230;51.502;7.108;2023-05-17T23:30:40;10.50;99.90
31619;DHT22;18230;51.502;7.108;2023-05-17T23:35:41;10.40;99.90
31619;DHT22;18230;51.502;7.108;2023-05-17T23:40:42;10.30;99.90
31619;DHT22;18230;51.502;7.108;2023-05-17T23:45:43;10.20;99.90
31619;DHT22;18230;51.502;7.108;2023-05-17T23:50:43;10.10;99.90
31619;DHT22;18230;51.502;7.108;2023-05-17T23:55:44;10.00;99.90
